Wilpen, Minnesota
Current Conditions -  °F | °C
As of 11:53 AM on Friday 21 Nov 2014 (Local Time) from KHIB Reporting Station
Clear Clear  
Wind Chill: 14°   Ceiling: Unl
Heat Index: 25°   Visibility: 10mi
Dew Point: 12°   Wind: 12mph
Humidity: 58%   Direction: 180°S
Pressure: 29.89"   Gusts: 26mph
Location:  47.4158°N, 93.0053°W
Report Text: KHIB 211753Z AUTO 18010G23KT 10SM CLR M04/M11 A2989 RMK AO2 SLP156 T10391111 11039 21172 58038
Loading
Personal Weather Stations






























Interactive Weather Map New forecast layout! Learn more

10-Day Weather Forecast

Advertisements
Track Severe Weather on mobile